Time;durP1;ratioP1;P1;durP2;ratioP2;P2;SDS_P1;SDS_P2;PMS_P1;PMS_P2;Temp;Humidity;BMP_temperature;BMP_pressure;BME280_temperature;BME280_humidity;BME280_pressure;Samples;Min_cycle;Max_cycle;Signal;HPM_P1;HPM_P2
2024/01/06 00:01:16;;;;;;;3.58;1.70;;;;;;;6.11;100.00;94448.28;5092826;28;20214;-76
2024/01/06 00:03:43;;;;;;;0.57;0.57;;;;;;;6.15;99.73;94436.59;5092071;28;20251;-76
2024/01/06 00:06:12;;;;;;;0.70;0.68;;;;;;;5.99;100.00;94456.88;5091913;28;20209;-76
2024/01/06 00:08:39;;;;;;;0.73;0.57;;;;;;;6.17;99.82;94442.47;5091837;28;20198;-78
2024/01/06 00:11:06;;;;;;;0.30;0.30;;;;;;;5.92;100.00;94429.63;5091333;28;20218;-77
2024/01/06 00:13:33;;;;;;;0.47;0.47;;;;;;;6.27;100.00;94423.44;5091848;28;20218;-77
2024/01/06 00:15:59;;;;;;;0.38;0.38;;;;;;;6.22;100.00;94415.47;5092012;28;20207;-76
2024/01/06 00:18:28;;;;;;;0.93;0.88;;;;;;;6.36;100.00;94442.31;5091997;28;20202;-77
2024/01/06 00:20:56;;;;;;;1.85;0.90;;;;;;;6.36;100.00;94451.19;5091485;28;20293;-77
2024/01/06 00:23:23;;;;;;;0.28;0.28;;;;;;;6.41;100.00;94445.69;5091855;28;20564;-78
2024/01/06 00:25:50;;;;;;;0.45;0.45;;;;;;;6.42;100.00;94460.72;5090366;28;20202;-77
2024/01/06 00:28:17;;;;;;;0.82;0.82;;;;;;;6.36;99.74;94440.41;5090429;28;20264;-77
2024/01/06 00:30:43;;;;;;;0.55;0.55;;;;;;;6.10;100.00;94439.44;5088875;28;20226;-78
2024/01/06 00:33:12;;;;;;;0.30;0.30;;;;;;;6.22;100.00;94463.09;5090290;28;20229;-76
2024/01/06 00:35:41;;;;;;;0.57;0.57;;;;;;;6.22;100.00;94453.13;5091326;28;20255;-78
2024/01/06 00:38:08;;;;;;;1.00;0.77;;;;;;;6.28;100.00;94443.84;5091820;28;20621;-77
2024/01/06 00:40:35;;;;;;;0.20;0.20;;;;;;;5.96;100.00;94444.03;5091427;28;20220;-76
2024/01/06 00:43:02;;;;;;;0.75;0.75;;;;;;;5.88;100.00;94452.78;5091561;28;20666;-76
2024/01/06 00:45:30;;;;;;;0.52;0.52;;;;;;;6.16;100.00;94451.63;5091488;28;20206;-76
2024/01/06 00:47:57;;;;;;;0.55;0.55;;;;;;;6.21;100.00;94448.06;5091166;28;20259;-76
2024/01/06 00:50:26;;;;;;;2.33;1.75;;;;;;;6.20;100.00;94439.19;5087844;28;20229;-76
2024/01/06 00:52:55;;;;;;;1.05;1.05;;;;;;;5.98;100.00;94423.84;5091436;28;20235;-77
2024/01/06 00:55:22;;;;;;;0.82;0.82;;;;;;;6.06;100.00;94443.81;5091001;28;20657;-76
2024/01/06 00:57:49;;;;;;;0.93;0.65;;;;;;;6.10;100.00;94439.44;5090801;28;20223;-78
2024/01/06 01:00:19;;;;;;;1.08;0.60;;;;;;;6.18;100.00;94440.59;5091013;28;20205;-77
2024/01/06 01:02:46;;;;;;;1.08;1.00;;;;;;;6.23;100.00;94433.22;5089477;28;20612;-77
2024/01/06 01:05:12;;;;;;;0.93;0.85;;;;;;;6.21;100.00;94435.41;5091045;28;20619;-77
2024/01/06 01:07:39;;;;;;;1.00;0.95;;;;;;;6.37;100.00;94438.53;5091358;28;20202;-77
2024/01/06 01:10:09;;;;;;;0.60;0.60;;;;;;;6.52;100.00;94440.06;5091197;28;20233;-76
2024/01/06 01:12:36;;;;;;;1.10;1.10;;;;;;;6.51;100.00;94435.78;5091676;28;20225;-77
2024/01/06 01:15:04;;;;;;;2.65;1.20;;;;;;;6.47;100.00;94432.09;5091563;28;20635;-78
2024/01/06 01:17:32;;;;;;;1.83;1.40;;;;;;;6.52;100.00;94423.91;5092149;28;20198;-77
2024/01/06 01:19:59;;;;;;;1.65;0.90;;;;;;;6.51;100.00;94425.00;5091483;28;20222;-78
2024/01/06 01:22:26;;;;;;;0.90;0.82;;;;;;;6.35;100.00;94420.00;5091757;28;20214;-77
2024/01/06 01:24:53;;;;;;;0.60;0.60;;;;;;;6.19;100.00;94431.41;5091450;28;20218;-78
2024/01/06 01:27:24;;;;;;;0.43;0.43;;;;;;;6.28;100.00;94430.41;5091357;28;20206;-78
2024/01/06 01:29:54;;;;;;;0.30;0.30;;;;;;;6.13;99.12;94422.69;5091580;28;20238;-77
2024/01/06 01:32:21;;;;;;;0.70;0.70;;;;;;;6.03;99.74;94412.94;5091321;28;20210;-78
2024/01/06 01:34:50;;;;;;;0.70;0.70;;;;;;;6.06;100.00;94419.63;5091487;28;20217;-78
2024/01/06 01:37:17;;;;;;;0.40;0.40;;;;;;;5.96;100.00;94417.97;5090740;28;20214;-77
2024/01/06 01:39:44;;;;;;;1.23;1.02;;;;;;;5.43;100.00;94409.69;5091548;28;20271;-78
2024/01/06 01:42:13;;;;;;;0.90;0.82;;;;;;;5.08;100.00;94408.50;5091709;28;20217;-77
2024/01/06 01:44:42;;;;;;;0.75;0.75;;;;;;;5.56;100.00;94411.56;5091671;28;20202;-78
2024/01/06 01:47:09;;;;;;;1.35;1.25;;;;;;;5.64;100.00;94399.28;5091548;28;20205;-77
2024/01/06 01:49:36;;;;;;;0.30;0.30;;;;;;;5.43;100.00;94404.31;5090708;28;20242;-77
2024/01/06 01:52:04;;;;;;;0.20;0.20;;;;;;;5.60;100.00;94404.47;5091403;28;20295;-77
2024/01/06 01:54:31;;;;;;;0.70;0.63;;;;;;;5.79;100.00;94390.09;5081225;28;20657;-77
2024/01/06 01:57:00;;;;;;;0.30;0.30;;;;;;;5.89;100.00;94400.66;5087482;28;20229;-78
2024/01/06 01:59:27;;;;;;;0.60;0.60;;;;;;;5.91;100.00;94382.31;5090746;28;20209;-78
2024/01/06 02:01:56;;;;;;;0.38;0.38;;;;;;;5.81;100.00;94394.06;5091058;28;20582;-79
2024/01/06 02:04:26;;;;;;;0.75;0.75;;;;;;;5.61;100.00;94395.31;5093592;28;20218;-78
2024/01/06 02:06:56;;;;;;;1.25;1.13;;;;;;;5.67;100.00;94386.06;5095095;28;20696;-78
2024/01/06 02:09:26;;;;;;;0.32;0.32;;;;;;;5.37;100.00;94389.38;5094899;28;20664;-78
2024/01/06 02:11:53;;;;;;;0.52;0.40;;;;;;;5.50;100.00;94388.56;5094723;28;20593;-77
2024/01/06 02:14:20;;;;;;;6.03;3.08;;;;;;;5.39;100.00;94365.72;5095071;28;20210;-77
2024/01/06 02:16:47;;;;;;;0.82;0.82;;;;;;;5.24;100.00;94357.97;5094657;28;20301;-78
2024/01/06 02:19:17;;;;;;;2.70;0.68;;;;;;;5.50;100.00;94361.72;5095085;28;20214;-78
2024/01/06 02:21:45;;;;;;;0.40;0.40;;;;;;;5.44;100.00;94373.66;5094633;28;20697;-78
2024/01/06 02:24:13;;;;;;;0.40;0.40;;;;;;;5.57;100.00;94356.72;5094583;28;20206;-79
2024/01/06 02:26:40;;;;;;;0.57;0.57;;;;;;;5.79;100.00;94357.84;5094759;28;20650;-78
2024/01/06 02:29:07;;;;;;;0.20;0.20;;;;;;;5.81;99.84;94359.13;5093815;28;20206;-78
2024/01/06 02:31:40;;;;;;;1.20;1.10;;;;;;;5.85;100.00;94352.06;5094025;28;20246;-77
2024/01/06 02:34:10;;;;;;;0.30;0.30;;;;;;;5.91;100.00;94345.50;5094090;28;20214;-77
2024/01/06 02:36:37;;;;;;;0.77;0.77;;;;;;;5.76;100.00;94336.94;5094793;28;20259;-76
2024/01/06 02:39:04;;;;;;;1.38;1.25;;;;;;;5.87;100.00;94343.69;5094310;28;20217;-78
2024/01/06 02:41:32;;;;;;;0.40;0.40;;;;;;;5.98;100.00;94339.69;5094043;28;20597;-76
2024/01/06 02:44:03;;;;;;;0.75;0.75;;;;;;;5.97;100.00;94338.09;5094270;28;20637;-77
2024/01/06 02:46:30;;;;;;;0.75;0.75;;;;;;;6.06;100.00;94318.25;5094361;28;20257;-76
2024/01/06 02:48:57;;;;;;;0.57;0.57;;;;;;;6.16;100.00;94332.53;5094097;28;20698;-76
2024/01/06 02:51:24;;;;;;;0.55;0.55;;;;;;;5.83;100.00;94337.34;5108200;28;20736;-77
2024/01/06 02:53:53;;;;;;;1.63;1.52;;;;;;;5.59;100.00;94333.03;5110127;28;20199;-75
2024/01/06 02:56:20;;;;;;;0.40;0.40;;;;;;;5.46;100.00;94328.50;5094262;28;20669;-76
2024/01/06 02:58:48;;;;;;;0.28;0.28;;;;;;;5.77;100.00;94322.41;5093722;28;20233;-75
2024/01/06 03:01:20;;;;;;;0.60;0.60;;;;;;;5.57;100.00;94316.44;5093639;28;20206;-77
2024/01/06 03:03:49;;;;;;;1.65;1.55;;;;;;;5.51;100.00;94314.94;5113364;28;20201;-77
2024/01/06 03:06:16;;;;;;;6.25;1.05;;;;;;;5.43;100.00;94314.88;5113873;28;20210;-77
2024/01/06 03:08:43;;;;;;;1.00;0.85;;;;;;;5.61;100.00;94324.66;5108071;28;20217;-75
2024/01/06 03:11:11;;;;;;;0.60;0.60;;;;;;;5.59;98.50;94306.19;5106575;28;20225;-76
2024/01/06 03:13:38;;;;;;;0.40;0.40;;;;;;;5.66;98.63;94322.66;5113691;28;20227;-76
2024/01/06 03:16:08;;;;;;;0.82;0.77;;;;;;;5.92;99.12;94317.50;5113249;28;20211;-75
2024/01/06 03:18:35;;;;;;;0.43;0.43;;;;;;;5.95;97.52;94313.41;5114319;28;20266;-77
2024/01/06 03:21:02;;;;;;;2.28;1.85;;;;;;;6.00;96.31;94314.09;5113715;28;20212;-76
2024/01/06 03:23:29;;;;;;;0.55;0.55;;;;;;;5.84;95.72;94293.25;5113781;28;20741;-75
2024/01/06 03:25:58;;;;;;;0.52;0.50;;;;;;;5.95;96.29;94297.28;5113528;28;20201;-75
2024/01/06 03:28:25;;;;;;;0.20;0.20;;;;;;;5.89;95.09;94299.28;5113143;28;20562;-75
2024/01/06 03:30:55;;;;;;;0.55;0.55;;;;;;;5.90;95.56;94305.47;5112759;28;20283;-75
2024/01/06 03:33:23;;;;;;;0.28;0.28;;;;;;;5.87;94.93;94304.19;5113949;28;20206;-76
2024/01/06 03:35:50;;;;;;;1.85;1.23;;;;;;;5.98;96.30;94307.44;5112972;28;20210;-76
2024/01/06 03:38:17;;;;;;;0.28;0.28;;;;;;;6.09;96.81;94303.41;5113746;28;20361;-76
2024/01/06 03:40:44;;;;;;;0.22;0.22;;;;;;;5.95;95.25;94297.28;5111718;28;20565;-76
2024/01/06 03:43:11;;;;;;;0.30;0.30;;;;;;;5.77;95.49;94290.16;5092813;28;20210;-75
2024/01/06 03:45:38;;;;;;;0.80;0.73;;;;;;;5.69;96.54;94295.19;5092613;28;20229;-76
2024/01/06 03:48:06;;;;;;;0.43;0.43;;;;;;;5.48;98.27;94298.63;5102552;28;20591;-77
2024/01/06 03:50:37;;;;;;;0.68;0.68;;;;;;;5.63;98.06;94292.91;5109894;28;20246;-78
2024/01/06 03:53:04;;;;;;;1.10;1.05;;;;;;;5.36;99.54;94281.16;5093024;28;20214;-78
2024/01/06 03:55:31;;;;;;;0.20;0.20;;;;;;;5.63;99.95;94284.84;5097711;28;20208;-77
2024/01/06 03:58:03;;;;;;;0.22;0.22;;;;;;;5.75;99.95;94287.00;5113301;28;20214;-76
2024/01/06 04:00:30;;;;;;;0.20;0.20;;;;;;;5.84;99.92;94294.03;5113524;28;20716;-78
2024/01/06 04:02:56;;;;;;;0.50;0.50;;;;;;;5.78;98.58;94302.50;5112988;28;20213;-78
2024/01/06 04:05:23;;;;;;;0.40;0.40;;;;;;;5.62;97.93;94288.63;5113035;28;20576;-77
2024/01/06 04:07:52;;;;;;;0.73;0.73;;;;;;;5.28;98.60;94289.16;5112821;28;20551;-77
2024/01/06 04:10:22;;;;;;;0.30;0.30;;;;;;;5.51;98.47;94293.47;5107058;28;20210;-77
2024/01/06 04:12:52;;;;;;;1.45;0.75;;;;;;;5.42;98.94;94295.28;5092576;28;20222;-77
2024/01/06 04:15:19;;;;;;;0.32;0.32;;;;;;;5.57;99.39;94294.94;5092697;28;20296;-78
2024/01/06 04:17:54;;;;;;;0.30;0.30;;;;;;;5.53;98.32;94285.09;5106383;28;20214;-75
2024/01/06 04:20:21;;;;;;;1.35;1.23;;;;;;;5.74;99.75;94296.94;5113052;28;20204;-76
2024/01/06 04:22:48;;;;;;;0.20;0.20;;;;;;;5.47;99.27;94297.03;5112002;28;20213;-75
2024/01/06 04:25:16;;;;;;;0.90;0.47;;;;;;;5.47;99.45;94287.09;5112951;28;20224;-76
2024/01/06 04:27:45;;;;;;;0.50;0.50;;;;;;;5.22;99.37;94284.97;5112751;28;20278;-76
2024/01/06 04:30:12;;;;;;;0.30;0.30;;;;;;;5.21;100.00;94286.06;5112747;28;20301;-76
2024/01/06 04:32:40;;;;;;;0.30;0.30;;;;;;;5.48;100.00;94304.81;5111879;28;20232;-76
2024/01/06 04:35:07;;;;;;;0.47;0.47;;;;;;;5.41;99.07;94304.44;5112447;28;20202;-75
2024/01/06 04:37:34;;;;;;;0.28;0.28;;;;;;;5.11;99.76;94294.34;5111960;28;20631;-76
2024/01/06 04:40:01;;;;;;;0.30;0.30;;;;;;;5.17;100.00;94311.97;5101702;28;20207;-76
2024/01/06 04:42:29;;;;;;;0.35;0.35;;;;;;;5.28;100.00;94329.44;5078027;28;20607;-77
2024/01/06 04:44:56;;;;;;;0.30;0.30;;;;;;;5.22;100.00;94318.00;5111783;28;20335;-77
2024/01/06 04:47:23;;;;;;;0.40;0.40;;;;;;;4.95;100.00;94296.56;5112193;28;20210;-76
2024/01/06 04:49:49;;;;;;;0.90;0.90;;;;;;;5.05;100.00;94309.00;5112355;28;20237;-76
2024/01/06 04:52:16;;;;;;;0.30;0.30;;;;;;;5.18;100.00;94329.66;5111432;28;20294;-76
2024/01/06 04:54:43;;;;;;;0.30;0.30;;;;;;;4.82;100.00;94308.91;5089275;28;20214;-74
2024/01/06 04:57:10;;;;;;;0.30;0.30;;;;;;;4.99;100.00;94330.56;5089895;28;20297;-75
2024/01/06 04:59:38;;;;;;;7.28;1.33;;;;;;;4.93;100.00;94334.44;5091806;28;20213;-75
2024/01/06 05:02:05;;;;;;;1.30;0.57;;;;;;;4.70;100.00;94310.50;5096111;28;20211;-75
2024/01/06 05:04:33;;;;;;;0.22;0.22;;;;;;;4.59;100.00;94315.25;5111602;28;20251;-76
2024/01/06 05:06:59;;;;;;;0.55;0.55;;;;;;;4.75;100.00;94319.25;5112176;28;20300;-76
2024/01/06 05:09:26;;;;;;;1.25;1.10;;;;;;;4.65;100.00;94295.28;5098654;28;20549;-76
2024/01/06 05:11:53;;;;;;;0.20;0.20;;;;;;;4.65;100.00;94293.41;5092284;28;20572;-74
2024/01/06 05:14:20;;;;;;;6.05;2.17;;;;;;;4.76;100.00;94304.75;5091490;28;20206;-75
2024/01/06 05:16:48;;;;;;;3.13;1.95;;;;;;;4.78;100.00;94302.56;5091535;28;20212;-75
2024/01/06 05:19:19;;;;;;;6.28;2.33;;;;;;;4.45;100.00;94293.00;5091419;28;20371;-77
2024/01/06 05:21:46;;;;;;;5.00;2.20;;;;;;;4.60;100.00;94293.50;5091314;28;20317;-77
2024/01/06 05:24:12;;;;;;;6.40;2.53;;;;;;;4.58;100.00;94297.59;5091654;28;20566;-77
2024/01/06 05:26:39;;;;;;;6.20;2.60;;;;;;;4.42;100.00;94290.91;5099191;28;20210;-76
2024/01/06 05:29:06;;;;;;;4.55;2.38;;;;;;;4.64;100.00;94285.69;5112426;28;20537;-76
2024/01/06 05:31:33;;;;;;;5.22;2.60;;;;;;;4.58;100.00;94284.16;5112272;28;20236;-77
2024/01/06 05:34:01;;;;;;;6.13;2.53;;;;;;;4.71;100.00;94275.31;5111240;28;20209;-77
2024/01/06 05:36:28;;;;;;;4.10;2.90;;;;;;;4.74;100.00;94263.22;5112031;28;20217;-77
2024/01/06 05:38:55;;;;;;;0.38;0.38;;;;;;;4.76;100.00;94277.13;5099219;28;20262;-76
2024/01/06 05:41:22;;;;;;;0.38;0.38;;;;;;;4.64;100.00;94264.22;5095446;28;20202;-76
2024/01/06 05:43:49;;;;;;;1.98;0.85;;;;;;;4.57;100.00;94261.13;5094967;28;20206;-78
2024/01/06 05:46:22;;;;;;;0.28;0.28;;;;;;;4.81;100.00;94275.13;5095600;28;20638;-76
2024/01/06 05:48:48;;;;;;;0.28;0.28;;;;;;;4.82;100.00;94274.03;5095116;28;20218;-76
2024/01/06 05:51:17;;;;;;;0.30;0.30;;;;;;;4.46;100.00;94262.44;5095438;28;20264;-76
2024/01/06 05:53:44;;;;;;;0.40;0.40;;;;;;;4.65;100.00;94277.31;5095158;28;20230;-78
2024/01/06 05:56:11;;;;;;;0.30;0.30;;;;;;;4.57;100.00;94263.81;5095322;28;20208;-76
2024/01/06 05:58:38;;;;;;;0.50;0.50;;;;;;;4.23;100.00;94265.00;5112173;28;20233;-75
2024/01/06 06:01:05;;;;;;;1.45;0.50;;;;;;;4.41;100.00;94275.91;5115471;28;20254;-78
2024/01/06 06:03:31;;;;;;;0.30;0.30;;;;;;;4.28;100.00;94258.72;5095016;28;20210;-77
2024/01/06 06:05:58;;;;;;;0.20;0.20;;;;;;;4.73;100.00;94273.16;5105373;28;20220;-77
2024/01/06 06:08:26;;;;;;;0.30;0.30;;;;;;;4.60;100.00;94268.59;5115352;28;20654;-77
2024/01/06 06:11:01;;;;;;;0.65;0.63;;;;;;;4.59;100.00;94261.63;5115208;28;20206;-77
2024/01/06 06:13:28;;;;;;;0.77;0.57;;;;;;;4.61;100.00;94257.56;5115454;28;20201;-75
2024/01/06 06:15:55;;;;;;;6.07;3.20;;;;;;;4.68;100.00;94262.50;5115013;28;20217;-76
2024/01/06 06:18:22;;;;;;;0.70;0.70;;;;;;;4.86;100.00;94260.81;5114506;28;20211;-76
2024/01/06 06:20:49;;;;;;;0.75;0.75;;;;;;;4.71;100.00;94256.53;5115280;28;20216;-75
2024/01/06 06:23:16;;;;;;;3.30;1.15;;;;;;;4.53;100.00;94252.88;5115362;28;20205;-76
2024/01/06 06:25:44;;;;;;;1.35;1.00;;;;;;;4.76;100.00;94271.75;5114865;28;20217;-76
2024/01/06 06:28:11;;;;;;;0.32;0.32;;;;;;;4.59;100.00;94270.47;5115033;28;20210;-76
2024/01/06 06:30:38;;;;;;;0.22;0.22;;;;;;;4.66;100.00;94275.41;5115035;28;20205;-76
2024/01/06 06:33:05;;;;;;;0.20;0.20;;;;;;;4.47;100.00;94275.53;5114761;28;20708;-77
2024/01/06 06:35:32;;;;;;;4.47;0.77;;;;;;;4.55;100.00;94282.06;5114440;28;20205;-75
2024/01/06 06:37:59;;;;;;;0.40;0.40;;;;;;;4.48;100.00;94270.97;5114976;28;20212;-75
2024/01/06 06:40:26;;;;;;;1.95;1.08;;;;;;;4.71;100.00;94269.97;5101712;28;20214;-76
2024/01/06 06:42:54;;;;;;;0.45;0.45;;;;;;;4.62;100.00;94285.19;5093680;28;20210;-75
2024/01/06 06:45:22;;;;;;;1.17;0.90;;;;;;;4.75;100.00;94281.69;5093882;28;20206;-76
2024/01/06 06:47:49;;;;;;;0.20;0.20;;;;;;;5.02;100.00;94288.13;5093780;28;20206;-76
2024/01/06 06:50:16;;;;;;;0.50;0.50;;;;;;;5.27;100.00;94274.13;5092874;28;20280;-76
2024/01/06 06:52:43;;;;;;;1.40;1.30;;;;;;;4.92;100.00;94279.16;5093502;28;20241;-76
2024/01/06 06:55:10;;;;;;;0.30;0.30;;;;;;;4.98;100.00;94291.41;5093335;28;20202;-75
2024/01/06 06:57:36;;;;;;;0.20;0.20;;;;;;;4.95;100.00;94269.72;5102361;28;20210;-74
2024/01/06 07:00:07;;;;;;;0.68;0.30;;;;;;;4.96;100.00;94274.78;5112477;28;20209;-75
2024/01/06 07:02:34;;;;;;;0.90;0.90;;;;;;;5.04;100.00;94288.63;5093870;28;20201;-76
2024/01/06 07:05:00;;;;;;;0.20;0.20;;;;;;;5.22;100.00;94275.03;5093315;28;20213;-76
2024/01/06 07:07:27;;;;;;;0.30;0.30;;;;;;;5.17;100.00;94271.69;5085025;28;20199;-78
2024/01/06 07:09:54;;;;;;;0.57;0.57;;;;;;;5.42;100.00;94279.16;5090106;28;20293;-76
2024/01/06 07:12:21;;;;;;;1.00;0.57;;;;;;;7.17;100.00;94277.84;5096615;28;20627;-77
2024/01/06 07:14:48;;;;;;;0.30;0.30;;;;;;;6.77;100.00;94254.50;5088816;28;20229;-77
2024/01/06 07:17:16;;;;;;;3.13;1.10;;;;;;;6.46;100.00;94271.78;5090320;28;20665;-78
2024/01/06 07:19:43;;;;;;;0.45;0.45;;;;;;;6.04;100.00;94265.88;5092680;28;20668;-77
2024/01/06 07:22:10;;;;;;;2.55;1.23;;;;;;;6.04;100.00;94271.25;5093036;28;20209;-79
2024/01/06 07:24:37;;;;;;;0.73;0.73;;;;;;;6.47;99.99;94271.47;5092573;28;20214;-78
2024/01/06 07:27:04;;;;;;;0.68;0.68;;;;;;;6.58;97.38;94259.31;5092441;28;20203;-78
2024/01/06 07:29:31;;;;;;;2.28;0.90;;;;;;;6.81;96.42;94260.06;5093474;28;20543;-77
2024/01/06 07:31:58;;;;;;;0.70;0.70;;;;;;;6.29;94.80;94251.75;5093570;28;20991;-78
2024/01/06 07:34:26;;;;;;;0.60;0.60;;;;;;;6.51;96.18;94260.88;5094209;28;20197;-78
2024/01/06 07:36:53;;;;;;;0.22;0.22;;;;;;;6.44;96.74;94250.56;5087758;28;20206;-78
2024/01/06 07:39:20;;;;;;;0.25;0.25;;;;;;;6.79;96.38;94254.19;5091472;28;20209;-77
2024/01/06 07:41:47;;;;;;;1.55;0.63;;;;;;;6.99;94.53;94261.66;5089796;28;20210;-77
2024/01/06 07:44:15;;;;;;;0.20;0.20;;;;;;;6.69;94.23;94257.16;5090623;28;20210;-79
2024/01/06 07:46:42;;;;;;;0.60;0.60;;;;;;;7.09;93.48;94250.59;5074453;28;20313;-77
2024/01/06 07:49:09;;;;;;;1.38;0.73;;;;;;;6.87;93.32;94256.09;5093713;28;20225;-78
2024/01/06 07:51:37;;;;;;;0.70;0.60;;;;;;;6.96;93.78;94259.63;5093977;28;20271;-79
2024/01/06 07:54:06;;;;;;;0.60;0.60;;;;;;;7.18;91.88;94253.31;5091460;28;20654;-77
2024/01/06 07:56:33;;;;;;;0.28;0.28;;;;;;;7.27;92.33;94247.91;5090588;28;20200;-78
2024/01/06 07:59:00;;;;;;;0.75;0.50;;;;;;;7.54;91.07;94250.31;5087651;28;20198;-77
2024/01/06 08:01:26;;;;;;;0.65;0.65;;;;;;;7.12;91.25;94255.34;5091825;28;20210;-78
2024/01/06 08:03:53;;;;;;;0.93;0.93;;;;;;;7.50;91.33;94265.53;5093958;28;20213;-79
2024/01/06 08:06:20;;;;;;;0.35;0.35;;;;;;;7.30;89.31;94255.38;5090114;28;20214;-79
2024/01/06 08:08:48;;;;;;;0.50;0.50;;;;;;;7.58;90.84;94259.34;5090219;28;20617;-79
2024/01/06 08:11:15;;;;;;;0.55;0.55;;;;;;;7.34;90.38;94256.34;5090874;28;20343;-79
2024/01/06 08:13:42;;;;;;;0.65;0.65;;;;;;;7.06;91.54;94253.94;5090324;28;20570;-80
2024/01/06 08:16:10;;;;;;;0.98;0.98;;;;;;;7.22;91.31;94264.25;5090054;28;20198;-82
2024/01/06 08:18:36;;;;;;;0.73;0.73;;;;;;;7.25;91.92;94250.13;5090828;28;20202;-80
2024/01/06 08:21:04;;;;;;;0.45;0.45;;;;;;;7.43;92.73;94243.66;5092373;28;20752;-78
2024/01/06 08:23:30;;;;;;;0.73;0.73;;;;;;;7.80;90.43;94242.19;5091005;28;20677;-79
2024/01/06 08:25:59;;;;;;;2.10;1.70;;;;;;;7.09;90.86;94242.53;5092300;28;20217;-79
2024/01/06 08:28:26;;;;;;;0.30;0.30;;;;;;;7.38;92.03;94270.78;5093317;28;20202;-80
2024/01/06 08:30:52;;;;;;;1.83;1.70;;;;;;;7.35;91.99;94247.16;5091072;28;20206;-78
2024/01/06 08:33:19;;;;;;;0.35;0.35;;;;;;;7.21;91.94;94233.03;5090351;28;20221;-77
2024/01/06 08:35:46;;;;;;;0.20;0.20;;;;;;;7.54;93.15;94239.53;5091257;28;20657;-75
2024/01/06 08:38:15;;;;;;;0.68;0.68;;;;;;;7.92;91.01;94250.44;5090316;28;20568;-77
2024/01/06 08:40:41;;;;;;;2.22;2.13;;;;;;;7.57;89.50;94222.72;5090986;28;20236;-77
2024/01/06 08:43:10;;;;;;;0.68;0.55;;;;;;;7.73;90.19;94248.09;5090759;28;20221;-76
2024/01/06 08:45:36;;;;;;;0.85;0.85;;;;;;;7.99;88.36;94241.84;5092737;28;20601;-78
2024/01/06 08:48:04;;;;;;;0.50;0.50;;;;;;;8.38;88.90;94236.22;5090308;28;20213;-77
2024/01/06 08:50:30;;;;;;;0.30;0.30;;;;;;;8.27;85.87;94229.56;5090659;28;20340;-78
2024/01/06 08:52:57;;;;;;;1.00;1.00;;;;;;;7.91;88.26;94248.06;5088191;28;20287;-79
2024/01/06 08:55:24;;;;;;;0.45;0.45;;;;;;;8.07;87.17;94241.03;5089365;28;20208;-77
2024/01/06 08:57:51;;;;;;;0.50;0.50;;;;;;;7.76;87.69;94230.47;5090771;28;20372;-78
2024/01/06 09:00:21;;;;;;;1.02;0.75;;;;;;;7.73;87.48;94240.00;5090581;28;20752;-77
2024/01/06 09:02:49;;;;;;;0.20;0.20;;;;;;;8.12;86.62;94244.38;5091258;28;20198;-77
2024/01/06 09:05:17;;;;;;;0.20;0.20;;;;;;;8.19;84.56;94208.81;5073645;28;20206;-78
2024/01/06 09:07:49;;;;;;;1.92;1.45;;;;;;;8.08;85.89;94215.66;5092683;28;20211;-76
2024/01/06 09:10:15;;;;;;;0.50;0.50;;;;;;;8.39;85.65;94239.72;5090926;28;20202;-77
2024/01/06 09:12:42;;;;;;;1.92;1.75;;;;;;;8.26;84.29;94214.50;5092493;28;20589;-79
2024/01/06 09:15:10;;;;;;;0.38;0.38;;;;;;;8.18;85.46;94199.13;5096071;28;20279;-77
2024/01/06 09:17:38;;;;;;;0.80;0.80;;;;;;;8.10;85.07;94205.34;5095811;28;20669;-79
2024/01/06 09:20:06;;;;;;;0.57;0.57;;;;;;;8.37;85.18;94199.56;5097326;28;20194;-78
2024/01/06 09:22:33;;;;;;;1.95;0.90;;;;;;;8.76;83.58;94208.41;5108555;28;20217;-80
2024/01/06 09:25:00;;;;;;;0.57;0.57;;;;;;;8.62;82.58;94192.44;5096811;28;20249;-79
2024/01/06 09:27:27;;;;;;;0.70;0.70;;;;;;;8.49;83.48;94183.47;5094375;28;20201;-78
2024/01/06 09:29:53;;;;;;;3.08;1.05;;;;;;;8.54;83.87;94187.91;5096880;28;20205;-79
2024/01/06 09:32:22;;;;;;;0.50;0.50;;;;;;;8.63;83.62;94182.44;5094870;28;20207;-80
2024/01/06 09:34:50;;;;;;;0.85;0.85;;;;;;;8.47;84.31;94166.03;5091076;28;20301;-81
2024/01/06 09:37:17;;;;;;;0.60;0.60;;;;;;;8.80;84.66;94182.34;5095102;28;20555;-81
2024/01/06 09:39:44;;;;;;;0.52;0.40;;;;;;;8.54;83.66;94164.41;5094087;28;20213;-79
2024/01/06 09:42:11;;;;;;;0.57;0.57;;;;;;;8.96;83.63;94175.25;5093752;28;20210;-80
2024/01/06 09:44:38;;;;;;;0.50;0.50;;;;;;;9.26;83.54;94165.19;5096489;28;20285;-80
2024/01/06 09:47:06;;;;;;;0.60;0.60;;;;;;;9.46;80.76;94155.47;5094593;28;20277;-79
2024/01/06 09:49:36;;;;;;;1.23;1.02;;;;;;;9.82;79.88;94171.06;5093925;28;20253;-79
2024/01/06 09:52:09;;;;;;;2.80;1.23;;;;;;;9.30;80.42;94141.78;5091763;28;20202;-78
2024/01/06 09:54:39;;;;;;;0.40;0.40;;;;;;;8.99;82.06;94115.19;5091068;28;20230;-78
2024/01/06 09:57:06;;;;;;;0.30;0.30;;;;;;;9.22;82.38;94161.56;5095571;28;20794;-78
2024/01/06 09:59:36;;;;;;;0.40;0.40;;;;;;;9.53;81.70;94155.75;5094079;28;20251;-78
2024/01/06 10:02:05;;;;;;;0.47;0.47;;;;;;;9.54;80.80;94125.66;5092456;28;20230;-77
2024/01/06 10:04:32;;;;;;;0.25;0.25;;;;;;;9.75;80.96;94147.25;5092930;28;20190;-76
2024/01/06 10:06:59;;;;;;;1.55;0.95;;;;;;;9.90;79.04;94141.19;5096048;28;20289;-78
2024/01/06 10:09:32;;;;;;;0.40;0.40;;;;;;;9.72;78.68;94114.66;5076007;28;20209;-80
2024/01/06 10:11:59;;;;;;;1.25;1.17;;;;;;;9.57;78.41;94110.69;5096789;28;20209;-79
2024/01/06 10:14:26;;;;;;;0.52;0.52;;;;;;;9.94;79.69;94120.47;5093568;28;20217;-80
2024/01/06 10:16:53;;;;;;;1.00;0.93;;;;;;;9.61;78.12;94098.06;5094365;28;20195;-80
2024/01/06 10:19:21;;;;;;;1.45;1.10;;;;;;;9.28;79.81;94079.19;5090767;28;20202;-81
2024/01/06 10:21:48;;;;;;;0.95;0.95;;;;;;;9.67;80.91;94123.78;5095316;28;20202;-79
2024/01/06 10:24:18;;;;;;;1.02;1.02;;;;;;;9.81;78.98;94089.13;5095278;28;20289;-79
2024/01/06 10:26:47;;;;;;;1.05;0.95;;;;;;;9.81;80.12;94091.81;5095886;28;20195;-80
2024/01/06 10:29:14;;;;;;;0.65;0.65;;;;;;;10.02;78.11;94107.16;5076778;28;20651;-79
2024/01/06 10:31:42;;;;;;;29.73;1.92;;;;;;;10.46;77.27;94090.09;5090038;28;20277;-79
2024/01/06 10:34:09;;;;;;;4.68;3.08;;;;;;;10.23;76.77;94086.25;5095104;28;20215;-78
2024/01/06 10:36:37;;;;;;;3.17;1.52;;;;;;;10.34;76.30;94098.22;5094245;28;20206;-78
2024/01/06 10:39:04;;;;;;;1.27;1.17;;;;;;;9.40;78.69;94081.91;5090182;28;20268;-78
2024/01/06 10:41:32;;;;;;;5.50;2.95;;;;;;;9.46;79.36;94074.38;5101803;28;20294;-78
2024/01/06 10:44:02;;;;;;;1.45;1.35;;;;;;;9.99;78.83;94095.88;5096919;28;20214;-77
2024/01/06 10:46:31;;;;;;;1.15;1.10;;;;;;;9.57;78.85;94062.00;5093601;28;20279;-79
2024/01/06 10:49:03;;;;;;;4.35;1.50;;;;;;;9.56;79.29;94058.53;5094984;28;20202;-78
2024/01/06 10:51:31;;;;;;;0.98;0.90;;;;;;;9.81;78.75;94070.19;5093089;28;20240;-77
2024/01/06 10:54:01;;;;;;;0.40;0.40;;;;;;;9.71;77.89;94067.91;5090658;28;20317;-80
2024/01/06 10:56:30;;;;;;;1.27;0.82;;;;;;;9.65;79.11;94071.97;5093848;28;20622;-78
2024/01/06 10:58:57;;;;;;;3.45;1.20;;;;;;;9.76;78.00;94064.97;5092738;28;20580;-78
2024/01/06 11:01:26;;;;;;;0.85;0.85;;;;;;;9.72;78.17;94045.13;5096900;28;20675;-78
2024/01/06 11:03:54;;;;;;;0.52;0.52;;;;;;;9.47;79.34;94038.09;5093324;28;20206;-78
2024/01/06 11:06:21;;;;;;;4.32;1.90;;;;;;;9.75;79.26;94049.88;5090975;28;20267;-77
2024/01/06 11:08:54;;;;;;;3.40;2.15;;;;;;;9.47;80.06;94027.28;5090207;28;20206;-77
2024/01/06 11:11:23;;;;;;;3.63;1.40;;;;;;;9.77;80.92;94042.22;5090647;28;20221;-80
2024/01/06 11:13:50;;;;;;;2.92;2.25;;;;;;;9.85;79.39;94030.50;5090509;28;20234;-78
2024/01/06 11:16:40;;;;;;;0.77;0.77;;;;;;;9.60;81.31;94020.78;5090145;28;20199;-79
2024/01/06 11:19:46;;;;;;;9.57;4.93;;;;;;;10.13;79.75;94035.25;5088139;28;20754;-78
2024/01/06 11:22:31;;;;;;;5.78;2.17;;;;;;;10.51;77.17;94018.66;5091738;28;20289;-79
2024/01/06 11:25:07;;;;;;;2.13;1.98;;;;;;;10.38;76.00;94031.44;5091567;28;20205;-78
2024/01/06 11:27:35;;;;;;;0.60;0.60;;;;;;;10.31;74.48;94017.66;5090826;28;20197;-78
2024/01/06 11:30:05;;;;;;;2.50;2.25;;;;;;;10.38;75.66;94007.06;5091946;28;20610;-79
2024/01/06 11:32:36;;;;;;;1.85;1.70;;;;;;;10.76;75.28;94008.56;5091590;28;20928;-80
2024/01/06 11:35:10;;;;;;;4.20;2.25;;;;;;;10.59;73.74;93999.56;5094428;28;20308;-80
2024/01/06 11:37:51;;;;;;;1.58;0.82;;;;;;;10.99;73.08;94004.16;5090502;28;20198;-77
2024/01/06 11:40:25;;;;;;;0.90;0.88;;;;;;;11.01;72.96;93985.66;5093245;28;20202;-78